Time;durP1;ratioP1;P1;durP2;ratioP2;P2;SDS_P1;SDS_P2;PMS_P1;PMS_P2;Temp;Humidity;BMP_temperature;BMP_pressure;BME280_temperature;BME280_humidity;BME280_pressure;Samples;Min_cycle;Max_cycle;Signal;HPM_P1;HPM_P2
2021/05/07 00:01:17;;;;;;;10.27;5.70;;;4.80;92.60;;;;;;5053774;28;20745;-61
2021/05/07 00:03:43;;;;;;;6.28;5.40;;;4.70;92.20;;;;;;5051200;28;20032;-62
2021/05/07 00:06:13;;;;;;;6.75;5.45;;;4.20;92.70;;;;;;5053393;28;20029;-63
2021/05/07 00:08:41;;;;;;;5.25;4.72;;;6.00;93.20;;;;;;5053881;28;20120;-62
2021/05/07 00:11:09;;;;;;;6.47;5.15;;;4.80;92.80;;;;;;5054452;28;20385;-62
2021/05/07 00:13:35;;;;;;;7.03;4.68;;;4.50;92.70;;;;;;5050155;28;20429;-62
2021/05/07 00:16:01;;;;;;;6.30;4.57;;;5.40;92.90;;;;;;5055229;28;20478;-62
2021/05/07 00:18:27;;;;;;;6.05;5.10;;;5.40;92.80;;;;;;5053319;28;20497;-63
2021/05/07 00:20:53;;;;;;;5.20;4.32;;;5.20;92.80;;;;;;5056913;28;20045;-63
2021/05/07 00:23:19;;;;;;;6.90;4.32;;;5.20;92.70;;;;;;5052249;28;20036;-62
2021/05/07 00:25:46;;;;;;;4.68;4.00;;;4.20;92.60;;;;;;5051548;28;20365;-62
2021/05/07 00:28:15;;;;;;;5.72;4.43;;;4.70;92.70;;;;;;5051240;28;20463;-62
2021/05/07 00:30:42;;;;;;;5.05;4.55;;;4.70;92.00;;;;;;5051002;28;21365;-63
2021/05/07 00:33:09;;;;;;;5.47;4.55;;;3.30;92.40;;;;;;5062220;28;20493;-63
2021/05/07 00:35:35;;;;;;;6.97;4.75;;;4.70;92.40;;;;;;5074018;28;20059;-62
2021/05/07 00:38:02;;;;;;;4.97;4.07;;;4.40;92.50;;;;;;5073063;28;20115;-62
2021/05/07 00:40:28;;;;;;;5.45;4.18;;;4.20;92.40;;;;;;5075408;28;20036;-63
2021/05/07 00:42:54;;;;;;;5.63;4.80;;;4.60;92.70;;;;;;5073769;28;20036;-63
2021/05/07 00:45:20;;;;;;;5.65;4.30;;;4.40;92.50;;;;;;5073524;28;20066;-61
2021/05/07 00:48:01;;;;;;;5.47;4.38;;;4.60;92.50;;;;;;5074042;28;20044;-60
2021/05/07 00:50:33;;;;;;;5.63;4.32;;;4.90;92.60;;;;;;5074537;28;20125;-62
2021/05/07 00:53:00;;;;;;;6.10;4.68;;;4.60;92.40;;;;;;5076272;28;20020;-62
2021/05/07 00:55:27;;;;;;;5.25;4.30;;;4.50;92.40;;;;;;5056814;28;20122;-62
2021/05/07 00:57:55;;;;;;;5.55;4.25;;;3.50;92.20;;;;;;5073694;28;20070;-62
2021/05/07 01:00:22;;;;;;;4.60;4.10;;;3.80;92.20;;;;;;5072602;28;20073;-62
2021/05/07 01:02:48;;;;;;;6.40;4.10;;;4.10;92.60;;;;;;5073873;28;20039;-61
2021/05/07 01:05:14;;;;;;;5.75;4.30;;;3.90;92.60;;;;;;5073796;28;20400;-62
2021/05/07 01:07:41;;;;;;;5.63;4.00;;;3.70;92.40;;;;;;5077054;28;20027;-62
2021/05/07 01:10:09;;;;;;;5.22;4.15;;;4.20;92.60;;;;;;5077569;28;20040;-62
2021/05/07 01:12:37;;;;;;;3.40;3.10;;;4.30;92.30;;;;;;5072047;28;20028;-62
2021/05/07 01:15:17;;;;;;;5.70;3.95;;;4.40;92.50;;;;;;5077212;28;20067;-62
2021/05/07 01:17:45;;;;;;;6.10;4.45;;;3.90;92.40;;;;;;5074896;28;20049;-62
2021/05/07 01:20:19;;;;;;;6.35;4.45;;;4.10;92.50;;;;;;5075282;28;20111;-61
2021/05/07 01:22:50;;;;;;;5.55;4.00;;;4.10;92.60;;;;;;5080542;28;20508;-62
2021/05/07 01:25:18;;;;;;;5.53;4.53;;;4.00;92.80;;;;;;5077948;28;20036;-62
2021/05/07 01:27:46;;;;;;;7.20;4.72;;;3.60;92.70;;;;;;5077313;28;20048;-62
2021/05/07 01:30:19;;;;;;;5.72;4.57;;;4.00;92.70;;;;;;5077419;28;20036;-62
2021/05/07 01:32:49;;;;;;;5.25;4.03;;;3.80;92.30;;;;;;5075300;28;20131;-62
2021/05/07 01:35:18;;;;;;;8.43;4.57;;;5.50;93.30;;;;;;5075178;28;20040;-62
2021/05/07 01:37:46;;;;;;;5.80;4.50;;;3.90;92.90;;;;;;5075127;28;20028;-62
2021/05/07 01:40:22;;;;;;;6.05;4.63;;;3.20;92.90;;;;;;5063252;28;20987;-63
2021/05/07 01:42:50;;;;;;;5.40;4.35;;;4.10;92.80;;;;;;5076424;28;20042;-62
2021/05/07 01:45:17;;;;;;;6.65;4.20;;;5.30;93.20;;;;;;5063199;28;20028;-61
2021/05/07 01:47:44;;;;;;;8.02;5.10;;;3.10;92.10;;;;;;5061474;28;20024;-61
2021/05/07 01:50:13;;;;;;;5.53;4.25;;;3.30;93.10;;;;;;5063307;28;20074;-62
2021/05/07 01:52:39;;;;;;;5.57;4.85;;;3.40;93.20;;;;;;5075994;28;20484;-62
2021/05/07 01:55:12;;;;;;;5.28;4.60;;;3.30;93.10;;;;;;5075230;28;20477;-62
2021/05/07 01:57:39;;;;;;;6.47;4.47;;;3.20;93.10;;;;;;5060963;28;20029;-61
2021/05/07 02:00:09;;;;;;;5.32;4.25;;;2.90;92.90;;;;;;5074427;28;20126;-62
2021/05/07 02:02:35;;;;;;;6.20;4.40;;;;;;;;;;5077628;28;20162;-62
2021/05/07 02:05:01;;;;;;;5.72;4.82;;;3.10;92.90;;;;;;5076533;28;20033;-62
2021/05/07 02:07:28;;;;;;;5.60;4.72;;;3.20;92.90;;;;;;5076368;28;20042;-62
2021/05/07 02:09:54;;;;;;;5.43;4.75;;;3.10;93.60;;;;;;5061962;28;20120;-62
2021/05/07 02:12:20;;;;;;;11.02;4.90;;;3.00;93.50;;;;;;5076481;28;20122;-62
2021/05/07 02:14:46;;;;;;;6.00;5.13;;;4.20;93.90;;;;;;5073381;28;20028;-61
2021/05/07 02:17:12;;;;;;;5.53;4.50;;;2.20;93.40;;;;;;5044826;28;20126;-62
2021/05/07 02:19:38;;;;;;;5.07;4.57;;;2.50;93.40;;;;;;5073440;28;20086;-62
2021/05/07 02:22:04;;;;;;;4.72;4.13;;;1.90;93.10;;;;;;5058805;28;20032;-62
2021/05/07 02:24:30;;;;;;;4.78;4.28;;;2.70;93.20;;;;;;5062880;28;20119;-62
2021/05/07 02:26:56;;;;;;;5.38;4.35;;;;;;;;;;5077542;28;20135;-62
2021/05/07 02:29:22;;;;;;;4.90;4.15;;;2.60;93.10;;;;;;5078265;28;20032;-62
2021/05/07 02:31:47;;;;;;;5.15;4.53;;;2.70;93.30;;;;;;5074751;28;20085;-62
2021/05/07 02:34:15;;;;;;;5.13;4.07;;;2.60;93.10;;;;;;5062839;28;20040;-63
2021/05/07 02:36:41;;;;;;;7.30;4.82;;;2.00;93.00;;;;;;5075521;28;20024;-62
2021/05/07 02:39:08;;;;;;;5.10;4.55;;;3.20;93.20;;;;;;5078255;28;20032;-62
2021/05/07 02:41:37;;;;;;;4.68;3.92;;;2.50;93.20;;;;;;5059214;28;20555;-62
2021/05/07 02:44:06;;;;;;;5.67;4.47;;;2.50;93.20;;;;;;5075690;28;23272;-63
2021/05/07 02:46:34;;;;;;;5.03;4.50;;;2.20;93.20;;;;;;5061255;28;20305;-62
2021/05/07 02:49:01;;;;;;;4.65;4.13;;;2.40;93.20;;;;;;5063696;28;20036;-63
2021/05/07 02:51:28;;;;;;;5.68;5.03;;;1.60;92.90;;;;;;5075421;28;20040;-63
2021/05/07 02:53:54;;;;;;;4.47;3.90;;;2.30;92.60;;;;;;5076620;28;20040;-63
2021/05/07 02:56:24;;;;;;;5.43;4.15;;;2.30;93.20;;;;;;5079087;28;20473;-63
2021/05/07 02:58:50;;;;;;;5.68;4.95;;;;;;;;;;5073589;28;20093;-63
2021/05/07 03:01:17;;;;;;;5.22;4.60;;;2.10;93.30;;;;;;5074082;28;20465;-63
2021/05/07 03:03:44;;;;;;;6.00;4.35;;;;;;;;;;5071931;28;20064;-62
2021/05/07 03:06:09;;;;;;;5.32;4.50;;;1.10;93.40;;;;;;5077162;28;20578;-62
2021/05/07 03:08:37;;;;;;;5.85;4.53;;;2.50;94.00;;;;;;5072828;28;20064;-63
2021/05/07 03:11:03;;;;;;;5.80;4.60;;;1.70;93.10;;;;;;5079418;28;20036;-63
2021/05/07 03:13:29;;;;;;;5.57;4.32;;;2.20;93.10;;;;;;5075464;28;20043;-63
2021/05/07 03:15:55;;;;;;;6.07;4.32;;;1.70;93.90;;;;;;5073621;28;20020;-63
2021/05/07 03:18:22;;;;;;;8.77;4.85;;;1.40;94.50;;;;;;5076865;28;20033;-63
2021/05/07 03:20:49;;;;;;;7.05;5.70;;;2.00;94.30;;;;;;5073542;28;20472;-62
2021/05/07 03:23:15;;;;;;;6.10;4.75;;;;;;;;;;5042511;28;20048;-63
2021/05/07 03:25:42;;;;;;;6.55;5.00;;;3.80;95.00;;;;;;5075999;28;20032;-63
2021/05/07 03:28:08;;;;;;;6.20;5.38;;;1.50;94.70;;;;;;5074120;28;20032;-63
2021/05/07 03:30:35;;;;;;;6.82;4.95;;;2.30;94.60;;;;;;5069252;28;20037;-63
2021/05/07 03:33:05;;;;;;;6.30;4.70;;;1.80;94.20;;;;;;5074814;28;20048;-63
2021/05/07 03:35:33;;;;;;;4.53;3.83;;;1.80;94.10;;;;;;5068963;28;20127;-62
2021/05/07 03:38:01;;;;;;;5.38;4.72;;;2.30;94.10;;;;;;5058734;28;20151;-63
2021/05/07 03:40:28;;;;;;;5.50;4.78;;;;;;;;;;5061374;28;20040;-62
2021/05/07 03:42:54;;;;;;;5.53;4.90;;;1.80;93.80;;;;;;5074087;28;20044;-63
2021/05/07 03:45:20;;;;;;;7.82;5.10;;;2.00;93.80;;;;;;5070353;28;20035;-62
2021/05/07 03:47:46;;;;;;;7.70;4.90;;;;;;;;;;5069820;28;20033;-63
2021/05/07 03:50:13;;;;;;;5.80;5.10;;;2.30;93.10;;;;;;5071492;28;20039;-62
2021/05/07 03:52:40;;;;;;;6.03;4.82;;;;;;;;;;5057641;28;20045;-63
2021/05/07 03:55:08;;;;;;;6.53;5.10;;;3.80;94.40;;;;;;5076283;28;20081;-63
2021/05/07 03:57:35;;;;;;;6.68;5.25;;;1.40;93.90;;;;;;5059114;28;20039;-62
2021/05/07 04:00:01;;;;;;;6.30;5.45;;;3.00;94.50;;;;;;5058538;28;20420;-62
2021/05/07 04:02:26;;;;;;;5.90;4.90;;;2.10;94.30;;;;;;5075074;28;20463;-63
2021/05/07 04:04:54;;;;;;;5.80;5.20;;;2.20;94.70;;;;;;5071559;28;20035;-63
2021/05/07 04:07:21;;;;;;;6.05;4.78;;;1.80;94.40;;;;;;5073338;28;20036;-63
2021/05/07 04:10:08;;;;;;;6.78;5.45;;;;;;;;;;5059756;28;21621;-63
2021/05/07 04:15:01;;;;;;;7.15;5.15;;;2.30;94.30;;;;;;5073590;28;20052;-63
2021/05/07 04:17:27;;;;;;;5.57;4.97;;;2.60;94.70;;;;;;5076621;28;20025;-61
2021/05/07 04:19:53;;;;;;;6.30;5.00;;;2.30;94.70;;;;;;5077509;28;20180;-62
2021/05/07 04:22:20;;;;;;;5.82;5.05;;;;;;;;;;5055984;28;20461;-61
2021/05/07 04:24:45;;;;;;;5.40;4.55;;;1.90;94.70;;;;;;5073883;28;20211;-62
2021/05/07 04:27:12;;;;;;;6.13;5.03;;;1.60;94.80;;;;;;5070744;28;20111;-62
2021/05/07 04:29:38;;;;;;;6.30;5.15;;;2.80;94.90;;;;;;5074097;28;20385;-62
2021/05/07 04:32:04;;;;;;;6.05;3.92;;;;;;;;;;5073977;28;20028;-62
2021/05/07 04:34:31;;;;;;;7.10;5.22;;;;;;;;;;5072296;28;20045;-62
2021/05/07 04:36:58;;;;;;;4.97;4.30;;;;;;;;;;5056441;28;20040;-62
2021/05/07 04:39:24;;;;;;;5.63;4.88;;;;;;;;;;5072981;28;20034;-62
2021/05/07 04:41:50;;;;;;;5.43;4.82;;;2.20;94.70;;;;;;5071870;28;20489;-61
2021/05/07 04:44:16;;;;;;;6.28;5.00;;;3.00;94.90;;;;;;5059598;28;20045;-62
2021/05/07 04:46:42;;;;;;;7.70;4.88;;;2.90;94.80;;;;;;5069852;28;20610;-62
2021/05/07 04:49:08;;;;;;;6.32;5.40;;;3.10;94.20;;;;;;5072984;28;20055;-62
2021/05/07 04:51:34;;;;;;;6.63;5.13;;;2.70;94.90;;;;;;5069661;28;23678;-62
2021/05/07 04:54:01;;;;;;;6.82;4.80;;;4.30;95.40;;;;;;5074622;28;20630;-63
2021/05/07 04:56:27;;;;;;;5.57;4.68;;;3.50;95.00;;;;;;5072527;28;20035;-61
2021/05/07 04:58:53;;;;;;;7.07;5.07;;;;;;;;;;5058466;28;20032;-62
2021/05/07 05:01:19;;;;;;;6.00;5.40;;;3.30;94.90;;;;;;5073216;28;20516;-62
2021/05/07 05:03:45;;;;;;;5.70;5.05;;;4.80;95.40;;;;;;5059507;28;20033;-63
2021/05/07 05:06:11;;;;;;;6.78;5.10;;;3.60;95.00;;;;;;5074129;28;20031;-63
2021/05/07 05:08:38;;;;;;;5.70;5.00;;;3.30;95.00;;;;;;5057538;28;20029;-62
2021/05/07 05:11:04;;;;;;;5.50;4.18;;;3.90;95.20;;;;;;5077285;28;20125;-63
2021/05/07 05:13:30;;;;;;;4.93;4.10;;;3.50;94.70;;;;;;5058495;28;20058;-62
2021/05/07 05:15:57;;;;;;;4.63;3.08;;;3.20;94.30;;;;;;5057740;28;20043;-63
2021/05/07 05:18:33;;;;;;;3.97;3.10;;;3.30;94.00;;;;;;5074687;28;20028;-63
2021/05/07 05:21:02;;;;;;;4.93;3.63;;;2.30;93.50;;;;;;5075569;28;20549;-63
2021/05/07 05:23:28;;;;;;;4.22;3.50;;;3.50;93.80;;;;;;5073558;28;20052;-61
2021/05/07 05:25:55;;;;;;;4.53;3.50;;;3.40;93.70;;;;;;5059313;28;20708;-61
2021/05/07 05:28:21;;;;;;;3.70;3.22;;;3.50;93.80;;;;;;5075095;28;20040;-62
2021/05/07 05:30:48;;;;;;;3.40;3.00;;;;;;;;;;5058438;28;20059;-62
2021/05/07 05:33:14;;;;;;;3.20;2.80;;;4.80;93.80;;;;;;5074933;28;20508;-62
2021/05/07 05:35:40;;;;;;;3.67;3.30;;;3.90;93.70;;;;;;5074384;28;20096;-62
2021/05/07 05:38:07;;;;;;;3.60;3.10;;;4.90;94.10;;;;;;5074327;28;20040;-62
2021/05/07 05:40:33;;;;;;;5.20;3.40;;;4.10;93.80;;;;;;5042174;28;20139;-62
2021/05/07 05:43:00;;;;;;;3.80;3.00;;;4.10;93.60;;;;;;5054585;28;20046;-61
2021/05/07 05:45:27;;;;;;;4.00;3.17;;;4.30;93.70;;;;;;5070606;28;20040;-61
2021/05/07 05:48:08;;;;;;;3.25;2.92;;;4.30;93.60;;;;;;5069319;28;20028;-61
2021/05/07 05:50:40;;;;;;;2.40;2.20;;;6.20;94.20;;;;;;5058566;28;20104;-61
2021/05/07 05:53:06;;;;;;;6.65;3.25;;;4.60;93.40;;;;;;5078073;28;20599;-61
2021/05/07 05:55:32;;;;;;;3.28;2.20;;;4.30;93.20;;;;;;5080748;28;20036;-61
2021/05/07 05:57:58;;;;;;;4.03;3.17;;;4.80;92.40;;;;;;5074627;28;20035;-61
2021/05/07 06:00:25;;;;;;;3.45;3.03;;;4.70;92.50;;;;;;5061730;28;20033;-64
2021/05/07 06:02:50;;;;;;;3.58;3.28;;;5.40;92.90;;;;;;5074924;28;20028;-61
2021/05/07 06:05:17;;;;;;;3.17;2.47;;;4.90;92.40;;;;;;5075649;28;20386;-61
2021/05/07 06:07:43;;;;;;;4.10;3.00;;;4.10;91.60;;;;;;5076873;28;20029;-62
2021/05/07 06:10:12;;;;;;;3.97;2.72;;;3.80;91.50;;;;;;5059042;28;20473;-61
2021/05/07 06:12:38;;;;;;;3.38;2.80;;;6.50;92.10;;;;;;5075592;28;20115;-62
2021/05/07 06:15:05;;;;;;;3.60;3.05;;;4.90;91.30;;;;;;5074414;28;20106;-61
2021/05/07 06:17:31;;;;;;;3.53;2.70;;;5.20;91.70;;;;;;5075818;28;20032;-61
2021/05/07 06:19:59;;;;;;;3.47;3.00;;;4.10;91.80;;;;;;5073701;28;20060;-61
2021/05/07 06:22:24;;;;;;;3.45;2.75;;;4.30;91.70;;;;;;5075647;28;20139;-61
2021/05/07 06:24:50;;;;;;;3.95;3.00;;;3.80;91.60;;;;;;5078791;28;20510;-61
2021/05/07 06:27:16;;;;;;;3.50;2.85;;;4.80;92.10;;;;;;5060316;28;20039;-62
2021/05/07 06:29:42;;;;;;;4.28;3.45;;;4.60;92.20;;;;;;5056811;28;20112;-61
2021/05/07 06:32:08;;;;;;;2.92;2.53;;;4.50;92.00;;;;;;5075607;28;20097;-61
2021/05/07 06:34:34;;;;;;;4.00;3.15;;;4.90;92.30;;;;;;5075075;28;20506;-61
2021/05/07 06:37:00;;;;;;;4.35;3.95;;;3.60;92.30;;;;;;5027256;28;20101;-61
2021/05/07 06:39:29;;;;;;;3.78;3.00;;;4.70;92.50;;;;;;5072976;28;20040;-61
2021/05/07 06:41:57;;;;;;;4.32;3.13;;;5.00;92.70;;;;;;5079453;28;20390;-61
2021/05/07 06:44:24;;;;;;;4.13;3.53;;;5.00;92.70;;;;;;5060590;28;20044;-61
2021/05/07 06:46:50;;;;;;;3.67;3.22;;;5.60;92.80;;;;;;5063172;28;20482;-61
2021/05/07 06:49:16;;;;;;;4.65;3.90;;;5.20;92.50;;;;;;5075355;28;20038;-61
2021/05/07 06:51:42;;;;;;;4.60;3.40;;;5.00;92.50;;;;;;5063307;28;20038;-61
2021/05/07 06:54:08;;;;;;;4.18;2.92;;;4.20;91.80;;;;;;5071586;28;20028;-60
2021/05/07 06:56:35;;;;;;;5.93;2.80;;;4.50;91.50;;;;;;5076102;28;20062;-60
2021/05/07 06:59:01;;;;;;;3.08;2.78;;;4.40;91.60;;;;;;5061046;28;20032;-61
2021/05/07 07:01:27;;;;;;;4.50;2.85;;;5.90;91.70;;;;;;5071859;28;20061;-60
2021/05/07 07:03:56;;;;;;;2.72;2.13;;;5.00;91.90;;;;;;5074560;28;20899;-60
2021/05/07 07:06:22;;;;;;;3.70;2.90;;;5.20;91.30;;;;;;5075934;28;20363;-61
2021/05/07 07:08:50;;;;;;;3.58;2.33;;;6.90;91.50;;;;;;5077362;28;20039;-60
2021/05/07 07:11:16;;;;;;;3.10;2.40;;;4.80;90.30;;;;;;5060474;28;20053;-60
2021/05/07 07:13:42;;;;;;;4.90;4.53;;;;;;;;;;5058966;28;20028;-61
2021/05/07 07:16:09;;;;;;;4.88;4.47;;;6.20;90.30;;;;;;5077732;28;20140;-61
2021/05/07 07:18:35;;;;;;;4.15;3.65;;;6.40;90.10;;;;;;5060580;28;20028;-61
2021/05/07 07:21:01;;;;;;;4.80;2.65;;;6.70;83.00;;;;;;5059649;28;20047;-61
2021/05/07 07:23:26;;;;;;;2.85;2.35;;;7.90;83.60;;;;;;5061352;28;20028;-61
2021/05/07 07:25:53;;;;;;;3.28;2.38;;;9.30;81.50;;;;;;5077037;28;20124;-61
2021/05/07 07:28:19;;;;;;;2.65;2.30;;;8.90;81.90;;;;;;5077547;28;20024;-61
2021/05/07 07:30:45;;;;;;;2.88;2.30;;;9.00;78.60;;;;;;5075743;28;20096;-61
2021/05/07 07:33:11;;;;;;;3.45;2.50;;;9.50;78.00;;;;;;5072905;28;20039;-61
2021/05/07 07:35:37;;;;;;;2.78;2.15;;;10.60;75.50;;;;;;5060355;28;20032;-62
2021/05/07 07:38:04;;;;;;;2.17;1.98;;;10.60;72.00;;;;;;5074906;28;20029;-62
2021/05/07 07:40:30;;;;;;;3.95;2.38;;;11.00;70.30;;;;;;5074047;28;20431;-61
2021/05/07 07:42:56;;;;;;;4.15;2.42;;;11.20;66.90;;;;;;5076183;28;20040;-60
2021/05/07 07:45:22;;;;;;;3.92;2.30;;;12.50;66.50;;;;;;5074111;28;20193;-60
2021/05/07 07:47:48;;;;;;;2.83;2.35;;;11.70;65.20;;;;;;5075078;28;20035;-61
2021/05/07 07:50:14;;;;;;;4.03;2.58;;;12.20;63.70;;;;;;5074710;28;20491;-60
2021/05/07 07:52:40;;;;;;;2.88;2.15;;;11.80;64.10;;;;;;5075951;28;20032;-61
2021/05/07 07:55:08;;;;;;;3.40;3.10;;;12.00;64.00;;;;;;5076910;28;20040;-61
2021/05/07 07:57:33;;;;;;;4.03;3.60;;;12.30;62.70;;;;;;5073110;28;20091;-61
2021/05/07 07:59:59;;;;;;;2.85;2.50;;;12.30;60.10;;;;;;5075067;28;20064;-61
2021/05/07 08:02:26;;;;;;;2.90;2.40;;;12.60;63.20;;;;;;5063728;28;20040;-61
2021/05/07 08:04:53;;;;;;;6.13;5.72;;;12.10;62.40;;;;;;5074681;28;20047;-61
2021/05/07 08:07:19;;;;;;;3.85;3.45;;;12.20;64.30;;;;;;5076004;28;20035;-61
2021/05/07 08:09:45;;;;;;;4.88;4.47;;;12.50;62.90;;;;;;5076608;28;20493;-62
2021/05/07 08:12:11;;;;;;;2.80;2.10;;;12.70;60.70;;;;;;5070921;28;20047;-61
2021/05/07 08:14:38;;;;;;;2.85;2.50;;;12.40;61.80;;;;;;5058488;28;20032;-61
2021/05/07 08:17:04;;;;;;;5.00;2.38;;;12.20;62.00;;;;;;5089534;28;20111;-61
2021/05/07 08:19:30;;;;;;;3.72;2.50;;;12.20;56.50;;;;;;5057704;28;20023;-61
2021/05/07 08:21:56;;;;;;;3.75;2.22;;;11.90;61.50;;;;;;5072404;28;20040;-61
2021/05/07 08:24:25;;;;;;;4.55;2.80;;;11.80;60.00;;;;;;5059783;28;20902;-61
2021/05/07 08:26:51;;;;;;;4.57;2.20;;;11.40;63.00;;;;;;5061037;28;20032;-61
2021/05/07 08:29:18;;;;;;;2.88;2.15;;;10.70;62.80;;;;;;5076029;28;20444;-61
2021/05/07 08:31:45;;;;;;;3.97;2.42;;;10.50;64.00;;;;;;5058834;28;20531;-61
2021/05/07 08:34:12;;;;;;;4.10;2.33;;;10.70;66.70;;;;;;5075761;28;20063;-62
2021/05/07 08:36:38;;;;;;;4.53;2.40;;;10.60;66.40;;;;;;5073515;28;20130;-62
2021/05/07 08:39:05;;;;;;;2.70;2.05;;;10.40;65.10;;;;;;5075202;28;20493;-61
2021/05/07 08:41:31;;;;;;;2.95;2.17;;;10.30;63.70;;;;;;5078210;28;20039;-61
2021/05/07 08:43:57;;;;;;;5.32;4.93;;;10.60;65.50;;;;;;5056666;28;20172;-61
2021/05/07 08:46:24;;;;;;;3.22;2.50;;;11.70;61.40;;;;;;5076995;28;20497;-62
2021/05/07 08:48:51;;;;;;;4.15;2.50;;;11.80;60.60;;;;;;5076236;28;20083;-61
2021/05/07 08:51:18;;;;;;;3.05;2.30;;;12.30;58.50;;;;;;5076225;28;20180;-61
2021/05/07 08:53:44;;;;;;;3.63;2.30;;;12.50;57.70;;;;;;5076581;28;20039;-62
2021/05/07 08:56:11;;;;;;;3.13;2.35;;;12.80;55.00;;;;;;5076075;28;20028;-62
2021/05/07 08:58:37;;;;;;;5.40;5.00;;;13.10;53.50;;;;;;5043322;28;20079;-61
2021/05/07 09:01:04;;;;;;;4.05;2.40;;;12.50;55.40;;;;;;5057279;28;20986;-61
2021/05/07 09:03:43;;;;;;;3.95;2.30;;;13.10;56.60;;;;;;5058554;28;20032;-62
2021/05/07 09:06:16;;;;;;;5.10;2.50;;;13.10;54.70;;;;;;5076044;28;20087;-61
2021/05/07 09:08:42;;;;;;;4.97;2.22;;;12.60;55.10;;;;;;5074471;28;20060;-61
2021/05/07 09:11:08;;;;;;;4.00;3.55;;;12.60;56.00;;;;;;5059859;28;20123;-62
2021/05/07 09:13:35;;;;;;;2.80;2.10;;;12.30;55.10;;;;;;5075749;28;20035;-62
2021/05/07 09:16:05;;;;;;;3.85;2.55;;;11.80;58.20;;;;;;5059573;28;20032;-62
2021/05/07 09:18:51;;;;;;;4.93;4.50;;;11.90;60.20;;;;;;5074207;28;20032;-63
2021/05/07 09:21:17;;;;;;;3.10;2.33;;;12.20;55.90;;;;;;5058111;28;20135;-63
2021/05/07 09:23:47;;;;;;;3.28;2.20;;;12.50;56.70;;;;;;5077475;28;20080;-61
2021/05/07 09:26:14;;;;;;;3.00;2.20;;;12.80;53.50;;;;;;5063482;28;20119;-62
2021/05/07 09:29:03;;;;;;;3.10;2.22;;;12.90;54.30;;;;;;5076690;28;20481;-62
2021/05/07 09:31:29;;;;;;;5.00;3.13;;;13.20;51.70;;;;;;5079101;28;20112;-62
2021/05/07 09:34:04;;;;;;;5.97;5.47;;;13.40;52.40;;;;;;5077680;28;20472;-62
2021/05/07 09:36:31;;;;;;;3.03;2.35;;;13.30;51.80;;;;;;5079301;28;20079;-62
2021/05/07 09:38:59;;;;;;;8.02;7.43;;;12.90;53.10;;;;;;5046722;28;20141;-62
2021/05/07 09:41:25;;;;;;;4.72;3.05;;;12.80;54.10;;;;;;5080909;28;20036;-62
2021/05/07 09:43:51;;;;;;;8.48;7.68;;;12.70;48.50;;;;;;5080725;28;20119;-63
2021/05/07 09:46:17;;;;;;;3.55;3.25;;;12.30;49.10;;;;;;5075000;28;20096;-63
2021/05/07 09:48:43;;;;;;;4.45;4.05;;;12.50;48.20;;;;;;5063372;28;20545;-63
2021/05/07 09:51:12;;;;;;;3.05;2.50;;;12.70;47.90;;;;;;5079044;28;20666;-62
2021/05/07 09:53:39;;;;;;;4.97;2.33;;;13.30;51.00;;;;;;5076733;28;20033;-64
2021/05/07 09:56:17;;;;;;;6.07;2.08;;;13.00;50.90;;;;;;5078741;28;20282;-64
2021/05/07 09:58:43;;;;;;;3.67;3.13;;;13.40;49.30;;;;;;5077866;28;20032;-63
2021/05/07 10:01:09;;;;;;;3.55;2.22;;;13.60;47.40;;;;;;5077792;28;20034;-62
2021/05/07 10:03:35;;;;;;;6.20;5.65;;;13.20;49.90;;;;;;5079858;28;20043;-61
2021/05/07 10:06:02;;;;;;;5.32;4.93;;;12.80;42.60;;;;;;5077137;28;20501;-61
2021/05/07 10:08:29;;;;;;;2.60;2.00;;;12.40;43.50;;;;;;4360820;28;10000779;-61
2021/05/07 10:11:00;;;;;;;3.75;3.45;;;12.10;42.80;;;;;;5070085;28;20093;-62
2021/05/07 10:13:35;;;;;;;5.35;2.53;;;12.10;47.10;;;;;;5057310;28;20093;-61
2021/05/07 10:16:09;;;;;;;4.15;2.30;;;12.30;46.00;;;;;;5059751;28;20153;-61
2021/05/07 10:18:38;;;;;;;3.90;2.63;;;12.40;48.20;;;;;;5071619;28;20553;-61
2021/05/07 10:21:09;;;;;;;2.60;2.30;;;12.50;48.90;;;;;;5068775;28;20107;-62
2021/05/07 10:23:36;;;;;;;3.83;2.30;;;12.50;44.30;;;;;;5070526;28;20044;-61
2021/05/07 10:26:09;;;;;;;2.97;2.10;;;12.30;43.60;;;;;;5074725;28;20473;-62
2021/05/07 10:28:48;;;;;;;2.33;2.13;;;12.20;46.40;;;;;;5074560;28;20059;-62
2021/05/07 10:31:15;;;;;;;3.25;2.13;;;12.30;47.50;;;;;;5063815;28;20133;-62
2021/05/07 10:33:57;;;;;;;2.58;1.90;;;12.40;45.50;;;;;;5077923;28;20055;-62
2021/05/07 10:36:34;;;;;;;2.60;1.77;;;12.90;45.60;;;;;;5087463;28;20083;-61
2021/05/07 10:39:00;;;;;;;3.85;2.00;;;12.70;48.30;;;;;;5080451;28;20544;-62
2021/05/07 10:41:34;;;;;;;2.90;1.90;;;12.70;46.50;;;;;;5094634;28;20036;-61
2021/05/07 10:44:00;;;;;;;2.90;1.98;;;11.80;49.00;;;;;;5089480;28;20036;-61
2021/05/07 10:46:28;;;;;;;3.28;2.33;;;12.20;48.60;;;;;;5059140;28;20057;-62
2021/05/07 10:48:56;;;;;;;6.18;5.78;;;12.40;44.40;;;;;;5083363;28;20068;-62
2021/05/07 10:51:23;;;;;;;2.60;2.08;;;11.80;44.30;;;;;;5097861;28;20420;-62
2021/05/07 10:53:49;;;;;;;3.00;2.70;;;11.80;45.30;;;;;;5082251;28;20111;-62
2021/05/07 10:56:21;;;;;;;3.78;3.47;;;12.00;46.50;;;;;;5085988;28;20123;-62
2021/05/07 10:58:48;;;;;;;3.60;3.22;;;12.10;45.90;;;;;;5097021;28;20040;-61
2021/05/07 11:01:15;;;;;;;2.72;2.53;;;12.30;46.60;;;;;;5095128;28;20055;-62
2021/05/07 11:03:41;;;;;;;2.70;2.15;;;12.50;47.60;;;;;;5088895;28;20040;-62
2021/05/07 11:06:07;;;;;;;2.83;2.05;;;11.40;47.10;;;;;;5090171;28;20032;-62
2021/05/07 11:08:33;;;;;;;3.90;2.90;;;12.90;48.90;;;;;;5094251;28;20062;-62
2021/05/07 11:10:59;;;;;;;4.38;2.63;;;13.80;49.30;;;;;;5075597;28;20032;-63
2021/05/07 11:13:26;;;;;;;4.05;2.20;;;12.80;50.00;;;;;;5093395;28;20062;-63
2021/05/07 11:16:00;;;;;;;2.50;2.08;;;12.60;49.80;;;;;;5080585;28;20431;-63
2021/05/07 11:18:28;;;;;;;3.38;1.90;;;13.20;49.30;;;;;;5089256;28;20032;-62
2021/05/07 11:20:54;;;;;;;2.53;1.80;;;12.30;48.10;;;;;;5098201;28;20039;-62
2021/05/07 11:23:20;;;;;;;2.58;1.77;;;12.80;48.30;;;;;;5091879;28;20066;-62
2021/05/07 11:25:46;;;;;;;3.22;1.80;;;12.60;48.00;;;;;;5089806;28;20493;-63
2021/05/07 11:28:19;;;;;;;5.03;4.72;;;13.20;48.70;;;;;;5069483;28;20045;-63
2021/05/07 11:30:52;;;;;;;3.40;3.13;;;12.40;47.50;;;;;;5088992;28;20035;-62
2021/05/07 11:33:20;;;;;;;2.70;1.60;;;11.90;46.30;;;;;;5089601;28;20039;-62
2021/05/07 11:35:46;;;;;;;2.30;1.70;;;12.20;45.10;;;;;;5086053;28;20072;-62
2021/05/07 11:38:13;;;;;;;1.55;1.42;;;12.20;45.30;;;;;;5090251;28;20048;-61
2021/05/07 11:40:40;;;;;;;3.13;1.50;;;12.80;46.60;;;;;;5097015;28;20033;-63
2021/05/07 11:43:11;;;;;;;1.90;1.65;;;12.40;46.60;;;;;;5071725;28;20501;-62
2021/05/07 11:45:39;;;;;;;2.78;1.58;;;12.60;46.30;;;;;;5088909;28;20779;-63
2021/05/07 11:48:14;;;;;;;1.85;1.60;;;12.20;47.80;;;;;;5088170;28;20540;-62
2021/05/07 11:50:40;;;;;;;2.63;1.83;;;12.00;48.40;;;;;;5088676;28;20126;-62
2021/05/07 11:53:21;;;;;;;2.05;1.70;;;13.00;49.70;;;;;;5091607;28;20416;-63
2021/05/07 11:55:48;;;;;;;1.63;1.45;;;12.10;48.20;;;;;;5073291;28;20046;-61
2021/05/07 11:58:13;;;;;;;1.92;1.75;;;12.40;46.20;;;;;;5082909;28;20032;-63
2021/05/07 12:00:40;;;;;;;2.20;1.58;;;12.60;44.00;;;;;;5081246;28;20035;-63
2021/05/07 12:03:11;;;;;;;2.70;1.70;;;12.50;43.50;;;;;;5062404;28;20035;-62
2021/05/07 12:05:39;;;;;;;2.05;1.60;;;12.40;45.40;;;;;;5093619;28;20035;-63
2021/05/07 12:08:06;;;;;;;1.75;1.50;;;13.30;47.50;;;;;;5086234;28;20054;-63
2021/05/07 12:10:34;;;;;;;2.17;1.80;;;12.40;45.40;;;;;;5085532;28;20466;-63
2021/05/07 12:13:00;;;;;;;2.10;1.60;;;12.40;45.40;;;;;;5091729;28;20055;-63
2021/05/07 12:15:33;;;;;;;2.10;1.58;;;12.50;47.10;;;;;;5089331;28;20106;-63
2021/05/07 12:17:59;;;;;;;2.45;1.80;;;12.20;46.70;;;;;;5089036;28;20043;-63
2021/05/07 12:20:29;;;;;;;4.60;4.30;;;12.10;48.50;;;;;;5088708;28;20118;-63
2021/05/07 12:22:57;;;;;;;3.58;1.98;;;12.40;48.50;;;;;;5088018;28;20039;-62
2021/05/07 12:25:24;;;;;;;2.28;1.70;;;11.90;48.40;;;;;;5078359;28;20035;-62
2021/05/07 12:27:52;;;;;;;1.55;1.45;;;11.80;49.10;;;;;;5077286;28;20512;-63
2021/05/07 12:30:19;;;;;;;2.15;1.63;;;11.80;50.30;;;;;;5085789;28;20113;-63
2021/05/07 12:33:03;;;;;;;6.10;4.78;;;12.30;49.50;;;;;;5087350;28;20024;-62
2021/05/07 12:35:39;;;;;;;2.90;2.10;;;12.10;49.50;;;;;;5084150;28;20056;-62
2021/05/07 12:38:18;;;;;;;3.40;2.30;;;11.40;49.30;;;;;;5086977;28;20027;-62
2021/05/07 12:40:45;;;;;;;2.85;2.10;;;11.90;49.60;;;;;;5082001;28;20560;-62
2021/05/07 12:43:11;;;;;;;2.92;2.60;;;12.00;50.40;;;;;;5076067;28;20033;-63
2021/05/07 12:45:37;;;;;;;2.95;2.08;;;12.10;51.10;;;;;;5077310;28;20490;-63
2021/05/07 12:48:04;;;;;;;2.05;1.77;;;10.70;45.20;;;;;;5088002;28;20042;-62
2021/05/07 12:50:29;;;;;;;2.90;2.60;;;12.50;46.80;;;;;;5090498;28;20089;-64
2021/05/07 12:52:55;;;;;;;3.50;2.97;;;12.60;47.70;;;;;;5092600;28;20039;-61
2021/05/07 12:55:22;;;;;;;10.68;10.07;;;12.60;45.80;;;;;;5095265;28;20038;-63
2021/05/07 12:57:48;;;;;;;3.45;2.30;;;12.10;48.90;;;;;;5071642;28;20036;-63
2021/05/07 13:00:14;;;;;;;3.00;2.65;;;12.30;48.90;;;;;;5088453;28;20032;-63
2021/05/07 13:02:40;;;;;;;2.17;1.95;;;12.20;47.60;;;;;;5097122;28;20035;-63